Wylie's Hourly Summary for Wednesday, July 11, 2018
Hour Temp
(f)
RH
(%)
Solar Rad.
(MJ/m2)
Rainfall
(in)
Wind
(mph)
7/11/2018 12:00 AM 80 67 0 0 2.08
7/11/2018 1:00 AM 79 70 0 0 0.81
7/11/2018 2:00 AM 78 74 0 0 1.48
7/11/2018 3:00 AM 77 78 0 0 1.09
7/11/2018 4:00 AM 77 81 0 0 1.67
7/11/2018 5:00 AM 77 81 0 0 1.03
7/11/2018 6:00 AM 77 81 0 0 1.14
7/11/2018 7:00 AM 77 82 0.03 0 1.91
7/11/2018 8:00 AM 76 81 0.19 0 2.77
7/11/2018 9:00 AM 78 77 0.46 0 3.92
7/11/2018 10:00 AM 80 70 1.2 0 4.77
7/11/2018 11:00 AM 84 65 1.62 0 4.38
7/11/2018 12:00 PM 87 57 2.16 0 4.63
7/11/2018 1:00 PM 90 51 2.97 0 5.03
7/11/2018 2:00 PM 92 43 3.06 0 7.5
7/11/2018 3:00 PM 92 39 1.16 0 6.85
7/11/2018 4:00 PM 95 34 2.86 0 6.02
7/11/2018 5:00 PM 94 34 1.13 0 7.25
7/11/2018 6:00 PM 93 43 0.68 0 7.44
7/11/2018 7:00 PM 89 45 0.52 0 8.09
7/11/2018 8:00 PM 87 57 0.24 0 6.46
7/11/2018 9:00 PM 85 59 0.03 0 5.12
7/11/2018 10:00 PM 83 61 0 0 5.54
7/11/2018 11:00 PM 82 64 0 0 5.29
Data Summary 83 62 18.31 0.00 4.26